Time;durP1;ratioP1;P1;durP2;ratioP2;P2;SDS_P1;SDS_P2;PMS_P1;PMS_P2;Temp;Humidity;BMP_temperature;BMP_pressure;BME280_temperature;BME280_humidity;BME280_pressure;Samples;Min_cycle;Max_cycle;Signal;HPM_P1;HPM_P2
2022/06/23 00:02:19;;;;;;;3.30;1.10;;;;;;;16.78;51.56;99648.96;117315;1186;21890;-53
2022/06/23 00:04:46;;;;;;;2.80;1.10;;;;;;;16.75;51.53;99635.86;117370;1184;21846;-56
2022/06/23 00:07:18;;;;;;;2.30;1.00;;;;;;;16.72;51.67;99632.63;117250;1184;22959;-53
2022/06/23 00:09:45;;;;;;;2.10;1.10;;;;;;;16.69;51.71;99639.85;117355;1185;21855;-52
2022/06/23 00:12:19;;;;;;;2.50;1.10;;;;;;;16.68;51.98;99646.48;117378;1183;23550;-52
2022/06/23 00:14:47;;;;;;;2.90;1.30;;;;;;;16.65;52.09;99651.20;117382;1184;22905;-52
2022/06/23 00:17:34;;;;;;;1.60;1.00;;;;;;;16.62;52.10;99660.73;117322;1186;22914;-56
2022/06/23 00:20:31;;;;;;;1.50;0.90;;;;;;;16.59;51.93;99667.81;117375;1189;21852;-52
2022/06/23 00:23:01;;;;;;;1.40;1.10;;;;;;;16.58;51.87;99673.52;117315;1185;22904;-56
2022/06/23 00:25:31;;;;;;;;;;;;;;;16.57;52.27;99664.69;117239;1183;21926;-53
2022/06/23 00:27:59;;;;;;;1.80;1.00;;;;;;;16.55;52.11;99656.67;117312;1183;23593;-55
2022/06/23 00:30:29;;;;;;;2.00;1.10;;;;;;;16.52;52.29;99648.69;117280;1186;21891;-55
2022/06/23 00:32:57;;;;;;;2.10;1.00;;;;;;;16.50;52.01;99645.89;117433;1182;23445;-52
2022/06/23 00:35:24;;;;;;;3.10;1.20;;;;;;;16.52;51.94;99640.70;117318;1182;22954;-56
2022/06/23 00:37:51;;;;;;;1.50;0.90;;;;;;;16.54;51.96;99641.67;117100;1182;24283;-56
2022/06/23 00:40:21;;;;;;;1.60;1.10;;;;;;;16.55;51.84;99641.77;117406;1185;22966;-52
2022/06/23 00:42:53;;;;;;;3.20;1.10;;;;;;;16.54;52.02;99639.73;117384;1183;22803;-52
2022/06/23 00:45:33;;;;;;;3.10;1.40;;;;;;;16.48;52.01;99638.05;117458;1184;21850;-56
2022/06/23 00:48:02;;;;;;;2.20;1.20;;;;;;;16.40;52.19;99633.32;117374;1182;23369;-56
2022/06/23 00:50:33;;;;;;;1.20;1.00;;;;;;;16.32;52.33;99635.48;117377;1186;21891;-56
2022/06/23 00:53:04;;;;;;;1.80;1.00;;;;;;;16.26;52.36;99639.45;117404;1186;21848;-56
2022/06/23 00:55:34;;;;;;;1.40;1.10;;;;;;;16.23;52.53;99645.09;117421;1182;22932;-52
2022/06/23 00:58:05;;;;;;;4.00;1.40;;;;;;;16.18;52.52;99648.31;117387;1185;22983;-55
2022/06/23 01:00:35;;;;;;;1.40;1.10;;;;;;;16.13;52.58;99649.09;117434;1184;23646;-55
2022/06/23 01:03:15;;;;;;;1.70;1.20;;;;;;;16.06;52.90;99647.81;117271;1183;22915;-53
2022/06/23 01:05:45;;;;;;;3.10;1.50;;;;;;;15.99;52.94;99650.08;117371;1186;21878;-57
2022/06/23 01:08:16;;;;;;;1.70;1.10;;;;;;;15.95;52.91;99651.52;117400;1183;22809;-56
2022/06/23 01:11:03;;;;;;;2.00;1.30;;;;;;;15.91;53.13;99649.39;117376;1183;22094;-56
2022/06/23 01:13:42;;;;;;;3.20;1.10;;;;;;;15.85;53.10;99648.05;117382;1182;23538;-52
2022/06/23 01:16:17;;;;;;;2.20;1.10;;;;;;;15.81;53.11;99647.88;117449;1184;22957;-53
2022/06/23 01:18:49;;;;;;;3.40;1.50;;;;;;;15.80;53.44;99641.05;117454;1185;22933;-56
2022/06/23 01:21:23;;;;;;;2.30;1.30;;;;;;;15.78;53.32;99637.75;117381;1185;22896;-52
2022/06/23 01:24:11;;;;;;;3.80;1.50;;;;;;;15.79;53.49;99640.19;117380;1183;21849;-55
2022/06/23 01:27:03;;;;;;;3.80;1.60;;;;;;;15.82;53.57;99641.98;117391;1186;22160;-52
2022/06/23 01:29:50;;;;;;;3.60;1.40;;;;;;;15.84;53.70;99642.23;117377;1182;21976;-52
2022/06/23 01:32:24;;;;;;;2.60;1.60;;;;;;;15.87;53.97;99637.55;117445;1183;24145;-52
2022/06/23 01:35:04;;;;;;;3.50;1.80;;;;;;;15.92;53.72;99642.08;117415;1186;23563;-56
2022/06/23 01:37:32;;;;;;;3.90;1.90;;;;;;;15.96;54.09;99646.88;117481;1183;24699;-56
2022/06/23 01:40:16;;;;;;;2.00;1.30;;;;;;;15.97;54.32;99645.20;117440;1185;22897;-52
2022/06/23 01:42:53;;;;;;;2.60;1.60;;;;;;;16.00;54.57;99648.08;117393;1183;22892;-52
2022/06/23 01:45:42;;;;;;;3.80;1.70;;;;;;;16.03;54.49;99644.79;117382;1182;23554;-56
2022/06/23 01:48:10;;;;;;;3.60;1.70;;;;;;;16.01;54.53;99642.92;117358;1185;21849;-56
2022/06/23 01:50:48;;;;;;;4.60;1.90;;;;;;;16.00;54.35;99646.50;117376;1182;21890;-56
2022/06/23 01:53:26;;;;;;;2.40;1.60;;;;;;;15.99;54.51;99645.11;117429;1185;23049;-56
2022/06/23 01:56:12;;;;;;;2.50;1.60;;;;;;;15.98;54.37;99643.22;117548;1183;22912;-52
2022/06/23 01:59:25;;;;;;;2.80;1.50;;;;;;;15.95;54.67;99643.01;117438;1183;22257;-54
2022/06/23 02:02:12;;;;;;;3.20;1.70;;;;;;;15.89;54.43;99641.67;117048;1185;22985;-56
2022/06/23 02:04:45;;;;;;;3.40;1.60;;;;;;;15.83;54.41;99643.17;117367;1185;22924;-54
2022/06/23 02:07:18;;;;;;;3.00;1.60;;;;;;;15.77;54.63;99644.34;117410;1183;22902;-52
2022/06/23 02:09:47;;;;;;;3.10;1.70;;;;;;;15.72;54.42;99646.13;117429;1183;23502;-56
2022/06/23 02:12:17;;;;;;;4.70;1.90;;;;;;;15.70;54.61;99647.64;117406;1185;21848;-56
2022/06/23 02:15:12;;;;;;;2.60;1.60;;;;;;;15.66;54.71;99647.12;117397;1186;23904;-56
2022/06/23 02:17:41;;;;;;;5.80;1.60;;;;;;;15.65;54.75;99643.82;117383;1186;21851;-56
2022/06/23 02:20:39;;;;;;;5.10;1.80;;;;;;;15.65;54.67;99650.00;117487;1182;23560;-56
2022/06/23 02:23:19;;;;;;;3.30;1.80;;;;;;;15.64;55.09;99655.18;117350;1183;22959;-56
2022/06/23 02:25:54;;;;;;;3.30;2.00;;;;;;;15.62;55.47;99651.21;117335;1186;23667;-52
2022/06/23 02:28:47;;;;;;;4.30;1.90;;;;;;;15.61;55.57;99647.16;117348;1186;21861;-52
2022/06/23 02:31:33;;;;;;;3.30;1.70;;;;;;;15.62;55.56;99657.23;117205;1185;22976;-52
2022/06/23 02:34:09;;;;;;;6.10;2.00;;;;;;;15.65;55.41;99662.38;117349;1184;21835;-51
2022/06/23 02:36:42;;;;;;;3.20;1.90;;;;;;;15.71;55.41;99661.95;117286;1182;21891;-56
2022/06/23 02:39:17;;;;;;;3.60;2.10;;;;;;;15.75;55.35;99661.23;117241;1185;23540;-52
2022/06/23 02:41:51;;;;;;;8.70;2.40;;;;;;;15.80;55.63;99657.29;117257;1186;21856;-52
2022/06/23 02:44:18;;;;;;;9.40;2.10;;;;;;;15.84;55.88;99664.36;117187;1185;22642;-53
2022/06/23 02:47:10;;;;;;;5.10;2.30;;;;;;;15.90;55.70;99668.16;117181;1180;22080;-56
2022/06/23 02:49:58;;;;;;;7.00;2.50;;;;;;;15.97;55.64;99671.91;117327;1183;23564;-52
2022/06/23 02:52:34;;;;;;;9.10;2.80;;;;;;;16.03;55.73;99665.30;117346;1185;23615;-52
2022/06/23 02:55:29;;;;;;;6.00;2.20;;;;;;;16.09;55.62;99668.39;117330;1183;23557;-52
2022/06/23 02:58:02;;;;;;;71.80;7.60;;;;;;;16.16;55.91;99675.46;117307;1185;21874;-52
2022/06/23 03:00:32;;;;;;;6.00;2.70;;;;;;;16.22;55.66;99681.77;117357;1185;21865;-56
2022/06/23 03:03:17;;;;;;;5.30;2.70;;;;;;;16.29;55.75;99685.52;117298;1185;21891;-56
2022/06/23 03:05:48;;;;;;;4.50;2.40;;;;;;;16.35;55.69;99687.01;117343;1186;22912;-55
2022/06/23 03:08:39;;;;;;;7.80;2.70;;;;;;;16.41;55.54;99684.77;117292;1185;22978;-53
2022/06/23 03:11:07;;;;;;;5.30;3.00;;;;;;;16.47;55.41;99687.50;117206;1185;23624;-56
2022/06/23 03:13:51;;;;;;;5.60;2.60;;;;;;;16.53;55.58;99693.96;117313;1185;21855;-52
2022/06/23 03:16:18;;;;;;;6.00;2.50;;;;;;;16.60;55.49;99692.36;117369;1183;21911;-56
2022/06/23 03:18:57;;;;;;;3.30;2.10;;;;;;;16.69;55.26;99684.86;117355;1183;21999;-53
2022/06/23 03:21:38;;;;;;;6.40;2.40;;;;;;;16.85;55.44;99682.84;117401;1182;23544;-57
2022/06/23 03:24:08;;;;;;;4.60;2.10;;;;;;;17.02;55.49;99674.23;117336;1185;21866;-52
2022/06/23 03:26:43;;;;;;;;;;;;;;;17.18;55.16;99672.34;117408;1186;23990;-56
2022/06/23 03:29:18;;;;;;;2.10;1.40;;;;;;;17.34;55.11;99676.69;117374;1183;22982;-56
2022/06/23 03:31:54;;;;;;;2.10;1.60;;;;;;;17.48;54.81;99676.33;117411;1182;23638;-56
2022/06/23 03:34:25;;;;;;;5.30;1.80;;;;;;;17.61;54.51;99671.95;117425;1182;22909;-52
2022/06/23 03:37:06;;;;;;;4.40;2.20;;;;;;;17.70;54.29;99667.70;117401;1185;22157;-56
2022/06/23 03:43:13;;;;;;;3.00;1.60;;;;;;;17.80;54.02;99674.49;117286;1186;24620;-54
2022/06/23 03:46:18;;;;;;;2.90;2.20;;;;;;;17.80;53.93;99676.44;117331;1186;22080;-56
2022/06/23 03:49:20;;;;;;;5.60;1.70;;;;;;;17.82;53.92;99678.98;117404;1185;23641;-53
2022/06/23 03:51:53;;;;;;;7.50;2.40;;;;;;;17.86;53.73;99674.34;117374;1185;21877;-56
2022/06/23 03:54:22;;;;;;;4.60;1.90;;;;;;;17.90;53.71;99673.61;117429;1183;22905;-56
2022/06/23 03:56:52;;;;;;;6.40;2.10;;;;;;;17.96;54.03;99668.27;117448;1185;21857;-54
2022/06/23 03:59:30;;;;;;;8.00;2.70;;;;;;;18.07;54.17;99664.19;117394;1183;23579;-54
2022/06/23 04:01:58;;;;;;;3.60;1.90;;;;;;;18.20;54.36;99662.19;117440;1180;22905;-56
2022/06/23 04:04:48;;;;;;;3.90;2.10;;;;;;;18.35;54.30;99655.89;117515;1180;22918;-53
2022/06/23 04:07:41;;;;;;;6.80;3.10;;;;;;;18.53;53.81;99657.39;117382;1183;21880;-54
2022/06/23 04:10:12;;;;;;;5.80;2.20;;;;;;;18.70;53.84;99660.84;117408;1183;24153;-54
2022/06/23 04:13:17;;;;;;;;;;;;;;;18.90;53.69;99658.66;117379;1186;22540;-56
2022/06/23 04:15:44;;;;;;;7.10;2.50;;;;;;;19.06;53.42;99665.18;117413;1183;23560;-56
2022/06/23 04:18:19;;;;;;;3.70;2.00;;;;;;;19.15;53.14;99677.85;117436;1182;22911;-56
2022/06/23 04:20:56;;;;;;;6.70;2.00;;;;;;;19.18;53.11;99675.20;117387;1182;21848;-53
2022/06/23 04:23:34;;;;;;;7.40;2.40;;;;;;;19.21;52.70;99673.35;117448;1181;22905;-53
2022/06/23 04:26:20;;;;;;;9.60;1.90;;;;;;;19.32;52.71;99680.36;117382;1183;24595;-55
2022/06/23 04:28:47;;;;;;;4.10;1.90;;;;;;;19.39;52.72;99672.52;117330;1184;22915;-53
2022/06/23 04:31:29;;;;;;;2.80;1.70;;;;;;;19.47;52.81;99673.62;117451;1183;22173;-53
2022/06/23 04:33:57;;;;;;;2.60;1.70;;;;;;;19.54;52.69;99670.38;117452;1185;22895;-56
2022/06/23 04:36:26;;;;;;;4.60;1.90;;;;;;;19.58;52.64;99666.91;117375;1186;22975;-53
2022/06/23 04:38:58;;;;;;;9.20;2.20;;;;;;;19.66;52.59;99666.42;117412;1182;24156;-53
2022/06/23 04:41:38;;;;;;;11.90;3.20;;;;;;;19.82;52.66;99665.09;117417;1186;21833;-55
2022/06/23 04:44:15;;;;;;;6.30;2.60;;;;;;;20.07;52.30;99656.08;117416;1186;24144;-53
2022/06/23 04:47:14;;;;;;;5.50;2.20;;;;;;;20.25;52.20;99656.88;117414;1185;23547;-53
2022/06/23 04:49:48;;;;;;;4.70;2.50;;;;;;;20.45;52.01;99656.16;117282;1185;24177;-53
2022/06/23 04:52:17;;;;;;;5.30;2.20;;;;;;;20.65;51.87;99651.84;117367;1186;21882;-55
2022/06/23 04:54:54;;;;;;;6.20;2.10;;;;;;;20.86;51.46;99652.09;117425;1185;21839;-55
2022/06/23 04:57:30;;;;;;;5.40;1.80;;;;;;;21.11;51.02;99651.48;117418;1182;21858;-56
2022/06/23 04:59:59;;;;;;;2.50;1.70;;;;;;;21.29;50.62;99654.54;117437;1182;22916;-56
2022/06/23 05:02:41;;;;;;;4.90;1.80;;;;;;;21.37;50.35;99658.61;117437;1183;22902;-53
2022/06/23 05:05:18;;;;;;;7.20;1.80;;;;;;;21.41;49.95;99659.84;117372;1181;22911;-56
2022/06/23 05:07:53;;;;;;;2.70;1.50;;;;;;;21.36;49.71;99663.50;117406;1183;22648;-55
2022/06/23 05:10:37;;;;;;;3.70;1.70;;;;;;;21.33;49.69;99664.09;117372;1183;22157;-55
2022/06/23 05:13:07;;;;;;;3.10;1.90;;;;;;;21.33;49.75;99663.38;117462;1182;21969;-54
2022/06/23 05:15:36;;;;;;;2.80;1.70;;;;;;;21.36;49.54;99667.84;117367;1185;21864;-55
2022/06/23 05:18:12;;;;;;;5.90;1.80;;;;;;;21.35;49.54;99671.24;117493;1182;21884;-56
2022/06/23 05:20:49;;;;;;;5.50;1.70;;;;;;;21.36;49.71;99670.50;117863;1185;22927;-55
2022/06/23 05:23:20;;;;;;;5.70;1.60;;;;;;;21.42;49.43;99668.83;117479;1183;21887;-55
2022/06/23 05:25:49;;;;;;;4.90;1.50;;;;;;;21.45;49.29;99670.56;117374;1186;21846;-53
2022/06/23 05:28:21;;;;;;;7.50;2.10;;;;;;;21.48;49.39;99675.91;117526;1183;21888;-53
2022/06/23 05:30:56;;;;;;;2.90;1.80;;;;;;;21.64;49.51;99670.42;117372;1185;23540;-53
2022/06/23 05:33:26;;;;;;;10.00;2.50;;;;;;;21.84;49.34;99666.86;117431;1186;21930;-55
2022/06/23 05:36:03;;;;;;;6.00;2.60;;;;;;;22.08;48.88;99665.88;117403;1184;22717;-55
2022/06/23 05:38:51;;;;;;;5.70;2.70;;;;;;;22.30;48.46;99669.15;117383;1186;23636;-55
2022/06/23 05:41:39;;;;;;;5.10;2.30;;;;;;;22.54;48.15;99665.27;117362;1185;22649;-56
2022/06/23 05:44:30;;;;;;;6.30;2.30;;;;;;;22.79;47.64;99665.92;117393;1185;21848;-52
2022/06/23 05:47:01;;;;;;;10.40;2.30;;;;;;;22.92;47.14;99667.46;117309;1186;22715;-54
2022/06/23 05:49:30;;;;;;;;;;;;;;;22.99;47.08;99666.42;117368;1182;23538;-53
2022/06/23 05:52:08;;;;;;;5.00;2.00;;;;;;;22.93;46.78;99660.58;117413;1183;23005;-55
2022/06/23 05:54:54;;;;;;;5.10;1.80;;;;;;;22.83;46.63;99662.96;117341;1180;23073;-56
2022/06/23 05:57:36;;;;;;;4.70;1.70;;;;;;;22.82;46.86;99660.48;117278;1182;23099;-54
2022/06/23 06:00:19;;;;;;;2.70;1.80;;;;;;;22.86;46.91;99665.75;117394;1184;21843;-54
2022/06/23 06:02:54;;;;;;;2.60;1.80;;;;;;;22.87;46.92;99671.36;117424;1179;23609;-55
2022/06/23 06:05:28;;;;;;;4.00;2.40;;;;;;;22.85;46.44;99675.16;117349;1184;23564;-53
2022/06/23 06:07:55;;;;;;;3.50;1.80;;;;;;;22.79;46.48;99670.25;117377;1182;22928;-53
2022/06/23 06:10:23;;;;;;;4.00;2.00;;;;;;;22.78;46.70;99663.13;117394;1182;21840;-53
2022/06/23 06:12:51;;;;;;;5.10;1.90;;;;;;;22.89;46.57;99662.17;117373;1182;22950;-54
2022/06/23 06:15:27;;;;;;;3.20;1.70;;;;;;;23.11;46.49;99664.44;117394;1180;23064;-54
2022/06/23 06:18:01;;;;;;;3.20;1.80;;;;;;;23.28;46.09;99667.67;117365;1182;22831;-56
2022/06/23 06:20:28;;;;;;;2.50;1.50;;;;;;;23.32;45.60;99667.73;117435;1182;23739;-56
2022/06/23 06:23:00;;;;;;;4.40;1.90;;;;;;;23.30;45.52;99671.42;117339;1185;23452;-54
2022/06/23 06:25:30;;;;;;;3.20;1.80;;;;;;;23.22;45.99;99671.30;117351;1182;22857;-56
2022/06/23 06:28:16;;;;;;;4.00;2.70;;;;;;;23.22;45.67;99668.08;117406;1186;22614;-55
2022/06/23 06:31:12;;;;;;;3.50;1.90;;;;;;;23.19;45.40;99665.40;117254;1182;23632;-55
2022/06/23 06:34:15;;;;;;;4.90;1.90;;;;;;;23.27;45.75;99665.73;117294;1186;21839;-57
2022/06/23 06:36:42;;;;;;;9.30;2.00;;;;;;;23.48;45.49;99661.08;117116;1185;22957;-55
2022/06/23 06:39:09;;;;;;;3.20;1.80;;;;;;;23.64;45.66;99665.79;117441;1183;23563;-56
2022/06/23 06:41:37;;;;;;;3.30;1.90;;;;;;;23.86;45.57;99671.38;117379;1186;23436;-55
2022/06/23 06:44:04;;;;;;;3.90;1.70;;;;;;;24.20;44.99;99668.55;117458;1185;23686;-54
2022/06/23 06:46:31;;;;;;;2.30;1.70;;;;;;;24.52;44.12;99665.80;117356;1183;21867;-55
2022/06/23 06:48:59;;;;;;;5.70;2.60;;;;;;;24.72;43.53;99664.69;117344;1186;22877;-57
2022/06/23 06:51:27;;;;;;;6.50;2.50;;;;;;;24.69;43.23;99668.01;117386;1185;23614;-55
2022/06/23 06:54:00;;;;;;;4.60;1.90;;;;;;;24.56;43.29;99666.36;117436;1184;23564;-56
2022/06/23 06:56:45;;;;;;;2.80;1.70;;;;;;;24.39;43.05;99669.00;117393;1182;22956;-55
2022/06/23 06:59:38;;;;;;;2.50;1.80;;;;;;;24.26;43.30;99666.79;117358;1184;23569;-56
2022/06/23 07:02:18;;;;;;;3.30;2.00;;;;;;;24.25;43.16;99675.84;117383;1188;21846;-55
2022/06/23 07:05:00;;;;;;;2.90;2.00;;;;;;;24.20;43.22;99683.11;117525;1185;22911;-55
2022/06/23 07:07:33;;;;;;;6.20;2.20;;;;;;;24.10;43.63;99690.32;117411;1182;22887;-55
2022/06/23 07:10:23;;;;;;;2.80;2.20;;;;;;;24.08;44.09;99691.76;117399;1182;23553;-56
2022/06/23 07:13:02;;;;;;;3.50;1.90;;;;;;;24.11;44.48;99688.61;117412;1186;22897;-56
2022/06/23 07:15:40;;;;;;;4.00;1.70;;;;;;;24.19;44.09;99684.77;117385;1183;22622;-56
2022/06/23 07:18:17;;;;;;;7.30;2.30;;;;;;;24.08;43.95;99683.85;117366;1182;23122;-55
2022/06/23 07:20:53;;;;;;;2.80;1.70;;;;;;;24.06;43.97;99684.69;117405;1182;23602;-55
2022/06/23 07:23:24;;;;;;;4.40;1.40;;;;;;;24.02;43.12;99684.33;117403;1185;23554;-55
2022/06/23 07:26:10;;;;;;;1.90;1.50;;;;;;;23.96;42.66;99684.21;117397;1179;22902;-56
2022/06/23 07:28:50;;;;;;;2.80;1.60;;;;;;;23.95;43.10;99686.43;117409;1185;22611;-54
2022/06/23 07:31:45;;;;;;;2.80;2.00;;;;;;;23.96;43.55;99685.88;117395;1185;22942;-58
2022/06/23 07:34:12;;;;;;;9.40;1.80;;;;;;;23.89;43.06;99686.92;117375;1186;22080;-56
2022/06/23 07:36:47;;;;;;;4.90;2.00;;;;;;;23.81;42.84;99689.35;117276;1180;22913;-57
2022/06/23 07:39:22;;;;;;;4.40;2.30;;;;;;;23.73;42.50;99693.04;117320;1185;21859;-57
2022/06/23 07:42:09;;;;;;;4.10;2.00;;;;;;;23.72;42.97;99689.53;117364;1182;22542;-57
2022/06/23 07:44:42;;;;;;;5.40;2.20;;;;;;;23.78;42.62;99694.92;117299;1182;21913;-55
2022/06/23 07:47:09;;;;;;;5.50;1.80;;;;;;;23.87;41.57;99694.08;117300;1182;21859;-56
2022/06/23 07:49:36;;;;;;;3.00;2.20;;;;;;;23.92;42.05;99695.64;117250;1185;22922;-55
2022/06/23 07:52:04;;;;;;;6.30;2.40;;;;;;;23.94;42.45;99699.09;117351;1183;21958;-55
2022/06/23 07:54:35;;;;;;;3.60;1.90;;;;;;;23.96;42.34;99699.30;117400;1186;21836;-55
2022/06/23 07:57:02;;;;;;;2.90;2.20;;;;;;;24.10;42.20;99696.95;117265;1183;21889;-58
2022/06/23 07:59:36;;;;;;;3.40;2.10;;;;;;;24.30;42.02;99704.52;117194;1185;23458;-55
2022/06/23 08:02:15;;;;;;;2.60;1.70;;;;;;;24.35;41.70;99716.46;117345;1185;21852;-54
2022/06/23 08:04:57;;;;;;;2.20;1.70;;;;;;;24.22;40.74;99716.28;117333;1183;23076;-54
2022/06/23 08:07:25;;;;;;;4.60;2.00;;;;;;;24.03;41.01;99715.41;117367;1186;21847;-54
2022/06/23 08:09:54;;;;;;;2.70;1.70;;;;;;;23.92;41.96;99711.02;117413;1185;22959;-55
2022/06/23 08:12:53;;;;;;;3.90;1.70;;;;;;;23.89;42.10;99711.25;117501;1182;22977;-55
2022/06/23 08:18:26;;;;;;;4.30;1.90;;;;;;;24.18;41.56;99701.30;117297;1186;24152;-54
2022/06/23 08:21:00;;;;;;;5.50;1.30;;;;;;;24.50;40.54;99700.91;117489;1182;23647;-54
2022/06/23 08:23:28;;;;;;;4.90;1.20;;;;;;;24.78;39.53;99700.30;117460;1186;21848;-56
2022/06/23 08:25:55;;;;;;;2.80;1.50;;;;;;;24.98;38.57;99696.80;117427;1182;23541;-56
2022/06/23 08:28:22;;;;;;;3.80;1.40;;;;;;;25.22;39.32;99704.21;117354;1186;22835;-54
2022/06/23 08:30:55;;;;;;;2.70;1.50;;;;;;;25.44;39.41;99710.06;117312;1186;21853;-54
2022/06/23 08:33:22;;;;;;;2.90;1.50;;;;;;;25.54;39.02;99706.33;117412;1186;21846;-55
2022/06/23 08:35:50;;;;;;;3.20;1.90;;;;;;;25.67;39.31;99702.20;117332;1183;22912;-54
2022/06/23 08:38:28;;;;;;;2.20;1.50;;;;;;;25.89;39.69;99706.04;117352;1183;23462;-55
2022/06/23 08:41:03;;;;;;;4.50;1.50;;;;;;;26.17;39.04;99706.67;117466;1185;21882;-55
2022/06/23 08:43:38;;;;;;;3.30;1.80;;;;;;;26.37;38.70;99710.66;117359;1181;22988;-56
2022/06/23 08:46:28;;;;;;;2.30;1.40;;;;;;;26.49;38.80;99716.09;117345;1184;23560;-56
2022/06/23 08:49:02;;;;;;;6.70;1.50;;;;;;;26.40;37.21;99713.49;117345;1182;24135;-56
2022/06/23 08:51:53;;;;;;;2.30;1.40;;;;;;;26.37;38.04;99710.48;117439;1182;21851;-55
2022/06/23 08:54:42;;;;;;;2.90;1.30;;;;;;;26.54;37.32;99704.11;117389;1185;21861;-56
2022/06/23 08:57:22;;;;;;;3.30;1.40;;;;;;;26.75;37.99;99702.73;117400;1186;21860;-56
2022/06/23 08:59:52;;;;;;;3.80;1.60;;;;;;;26.96;38.10;99698.55;117394;1186;23628;-55
2022/06/23 09:02:24;;;;;;;4.10;1.70;;;;;;;27.05;37.80;99704.20;117369;1181;22907;-56
2022/06/23 09:05:33;;;;;;;3.50;1.60;;;;;;;27.06;37.61;99718.20;117323;1180;21842;-56
2022/06/23 09:08:21;;;;;;;2.00;1.20;;;;;;;26.84;37.89;99729.34;117319;1182;22193;-55
2022/06/23 09:11:26;;;;;;;2.20;1.20;;;;;;;26.44;37.41;99734.35;117361;1182;22279;-55
2022/06/23 09:14:36;;;;;;;1.80;1.60;;;;;;;26.13;37.45;99744.08;117336;1182;23448;-55
2022/06/23 09:17:23;;;;;;;2.60;1.30;;;;;;;25.90;37.74;99749.80;118199;1185;21864;-56
2022/06/23 09:20:17;;;;;;;2.10;1.40;;;;;;;25.64;37.93;99752.69;117459;1182;21858;-56
2022/06/23 09:22:47;;;;;;;3.50;1.30;;;;;;;25.47;38.69;99754.91;117373;1182;23060;-57
2022/06/23 09:25:30;;;;;;;2.10;1.70;;;;;;;25.26;38.40;99752.45;117322;1184;23004;-58
2022/06/23 09:28:26;;;;;;;4.90;1.80;;;;;;;25.10;38.86;99760.80;117448;1183;21875;-57
2022/06/23 09:30:57;;;;;;;1.80;1.40;;;;;;;24.95;39.03;99759.31;117347;1186;22803;-56
2022/06/23 09:33:33;;;;;;;2.30;1.80;;;;;;;24.84;39.22;99764.90;117424;1186;21890;-56
2022/06/23 09:36:28;;;;;;;1.60;1.40;;;;;;;24.76;39.66;99764.11;117370;1185;21853;-56
2022/06/23 09:39:33;;;;;;;3.00;1.70;;;;;;;24.67;39.98;99761.96;117389;1186;23675;-56
2022/06/23 09:42:20;;;;;;;2.00;1.50;;;;;;;24.65;40.38;99754.22;117374;1182;23551;-56
2022/06/23 09:45:11;;;;;;;2.70;1.90;;;;;;;24.72;40.68;99752.80;117376;1179;23531;-55
2022/06/23 09:47:38;;;;;;;2.40;1.80;;;;;;;24.88;40.67;99747.70;117491;1183;23586;-56
2022/06/23 09:50:35;;;;;;;3.50;1.90;;;;;;;25.16;40.74;99744.39;117375;1186;23462;-55
2022/06/23 09:53:15;;;;;;;8.30;1.70;;;;;;;25.60;40.44;99745.02;117396;1182;23471;-54
2022/06/23 09:56:02;;;;;;;4.60;2.10;;;;;;;26.13;39.39;99742.40;117387;1184;21857;-54
2022/06/23 09:58:39;;;;;;;3.70;1.60;;;;;;;26.62;38.47;99737.20;117310;1186;24157;-55
2022/06/23 10:01:16;;;;;;;3.30;1.90;;;;;;;27.00;38.53;99737.46;117368;1186;21846;-56
2022/06/23 10:03:56;;;;;;;7.60;1.90;;;;;;;27.35;38.47;99728.85;117211;1182;22613;-56
2022/06/23 10:06:45;;;;;;;12.10;2.30;;;;;;;27.57;38.40;99727.17;117478;1184;21848;-56
2022/06/23 10:09:31;;;;;;;3.90;1.80;;;;;;;27.79;37.46;99728.54;117416;1182;22610;-56
2022/06/23 10:12:08;;;;;;;3.40;1.70;;;;;;;27.73;37.25;99730.16;117425;1182;21847;-56
2022/06/23 10:15:01;;;;;;;3.00;1.90;;;;;;;27.53;37.44;99728.27;117418;1180;21862;-55
2022/06/23 10:17:38;;;;;;;3.60;2.10;;;;;;;27.26;37.78;99731.98;117391;1186;22908;-54
2022/06/23 10:20:39;;;;;;;3.80;3.20;;;;;;;26.96;37.99;99743.20;117380;1179;23516;-55
2022/06/23 10:23:25;;;;;;;4.80;3.10;;;;;;;26.50;38.41;99744.20;117358;1184;22611;-56
2022/06/23 10:26:05;;;;;;;4.80;2.80;;;;;;;26.10;38.83;99745.02;117623;1184;22909;-56
2022/06/23 10:29:00;;;;;;;4.30;3.20;;;;;;;25.71;39.25;99750.66;117238;1185;22134;-56
2022/06/23 10:32:04;;;;;;;3.70;2.90;;;;;;;25.42;39.74;99749.90;117303;1185;23076;-55
2022/06/23 10:34:54;;;;;;;6.60;3.40;;;;;;;25.13;40.29;99759.88;117322;1184;21852;-54
2022/06/23 10:37:29;;;;;;;9.80;3.30;;;;;;;24.86;40.70;99762.44;118482;1185;21888;-54
2022/06/23 10:40:18;;;;;;;6.50;3.50;;;;;;;24.59;41.46;99768.32;117297;1182;21897;-54
2022/06/23 10:43:24;;;;;;;7.50;3.50;;;;;;;24.31;42.01;99774.13;117316;1185;22722;-55
2022/06/23 10:46:15;;;;;;;6.90;4.00;;;;;;;24.11;42.22;99777.52;117392;1184;21851;-56
2022/06/23 10:49:04;;;;;;;5.60;4.10;;;;;;;24.01;42.68;99782.38;117341;1182;23447;-56
2022/06/23 10:52:00;;;;;;;5.90;4.30;;;;;;;23.90;43.19;99785.17;117455;1186;21852;-55
2022/06/23 10:54:56;;;;;;;6.10;4.80;;;;;;;23.85;43.42;99782.33;117398;1182;22835;-54
2022/06/23 10:58:01;;;;;;;6.70;5.20;;;;;;;23.88;43.58;99783.52;117181;1186;23446;-57
2022/06/23 11:01:05;;;;;;;6.30;5.00;;;;;;;23.96;43.75;99785.29;117593;1182;24202;-55
2022/06/23 11:03:59;;;;;;;6.10;5.30;;;;;;;24.02;44.11;99790.56;117141;1185;21849;-55
2022/06/23 11:06:30;;;;;;;5.90;5.10;;;;;;;24.10;44.11;99791.77;117264;1185;23560;-54
2022/06/23 11:09:22;;;;;;;7.70;5.70;;;;;;;24.18;44.16;99789.15;117364;1179;21849;-55
2022/06/23 11:11:55;;;;;;;10.80;5.60;;;;;;;24.25;44.36;99790.21;117285;1182;23569;-55
2022/06/23 11:14:34;;;;;;;5.90;5.30;;;;;;;24.38;44.33;99786.30;117384;1182;21890;-55
2022/06/23 11:17:09;;;;;;;10.60;6.50;;;;;;;24.51;44.17;99791.41;117330;1182;22094;-55
2022/06/23 11:20:01;;;;;;;7.10;6.40;;;;;;;24.54;44.11;99793.19;117426;1185;23557;-57
2022/06/23 11:22:36;;;;;;;7.90;6.00;;;;;;;24.50;44.21;99795.47;117322;1182;22960;-55
2022/06/23 11:25:32;;;;;;;7.70;5.70;;;;;;;24.53;44.34;99796.46;117379;1182;21855;-55
2022/06/23 11:28:18;;;;;;;6.90;5.50;;;;;;;24.62;44.22;99798.10;117345;1184;21885;-55
2022/06/23 11:31:00;;;;;;;12.00;5.50;;;;;;;24.75;44.01;99795.58;117305;1182;23579;-56
2022/06/23 11:33:58;;;;;;;10.50;5.90;;;;;;;24.94;43.81;99798.90;117294;1186;21847;-57
2022/06/23 11:36:41;;;;;;;8.60;5.00;;;;;;;25.14;43.71;99795.12;117398;1184;22858;-56
2022/06/23 11:39:26;;;;;;;7.90;5.20;;;;;;;25.35;43.50;99795.56;117282;1185;21871;-54
2022/06/23 11:41:57;;;;;;;5.10;4.20;;;;;;;25.51;43.30;99796.04;117287;1185;21891;-55
2022/06/23 11:44:33;;;;;;;9.90;4.10;;;;;;;25.57;43.02;99797.19;117396;1185;22658;-55
2022/06/23 11:47:11;;;;;;;13.30;4.20;;;;;;;25.52;42.75;99795.77;117345;1185;24252;-54
2022/06/23 11:50:04;;;;;;;7.20;3.60;;;;;;;25.41;42.79;99793.98;117370;1184;22635;-54
2022/06/23 11:52:41;;;;;;;6.50;3.70;;;;;;;25.36;43.15;99790.46;117411;1184;23547;-54
2022/06/23 11:55:17;;;;;;;4.40;3.30;;;;;;;25.56;43.16;99785.38;117307;1182;22954;-55
2022/06/23 11:58:11;;;;;;;4.50;3.70;;;;;;;25.86;42.99;99782.29;117383;1182;21893;-57
2022/06/23 12:01:03;;;;;;;7.10;3.80;;;;;;;26.23;42.63;99783.95;117288;1184;22918;-55
2022/06/23 12:03:52;;;;;;;11.20;3.40;;;;;;;26.49;41.92;99784.81;117344;1183;21911;-56
2022/06/23 12:06:28;;;;;;;7.90;3.20;;;;;;;26.60;41.93;99780.55;117403;1186;24146;-54
2022/06/23 12:09:15;;;;;;;4.70;2.60;;;;;;;26.53;41.39;99784.45;117411;1182;22612;-55
2022/06/23 12:11:42;;;;;;;4.40;2.40;;;;;;;26.24;41.53;99786.92;117405;1182;22906;-54
2022/06/23 12:14:09;;;;;;;6.60;2.80;;;;;;;26.06;41.79;99789.92;117355;1182;23820;-55
2022/06/23 12:16:45;;;;;;;10.70;2.60;;;;;;;25.86;42.03;99790.56;117365;1185;22918;-56
2022/06/23 12:19:15;;;;;;;3.70;2.30;;;;;;;25.76;42.53;99788.76;117313;1185;22916;-57
2022/06/23 12:21:55;;;;;;;11.60;2.40;;;;;;;25.79;42.62;99781.48;117370;1185;22848;-55
2022/06/23 12:24:36;;;;;;;6.70;2.70;;;;;;;26.03;42.54;99784.45;117448;1186;21843;-56
2022/06/23 12:27:29;;;;;;;7.70;2.50;;;;;;;26.36;42.47;99783.98;117337;1185;22658;-55
2022/06/23 12:30:09;;;;;;;5.10;2.70;;;;;;;26.82;42.12;99783.30;117412;1182;24142;-55